Terminal Aerodrome Forecast
Issued by NWS Cleveland, OH

Home | Current Version | Previous Version | Graphics & Text | Print | Product List | Glossary On
Versions: 1 2 3 4 5 6 7 8 9 10 11 12 13 14 15 16 17
283
FTUS41 KCLE 220525
TAFERI
TAF
KERI 220525Z 2206/2306 31010KT 6SM -SHRA OVC012
      TEMPO 2206/2207 5SM -SHRA OVC006
     FM220700 30010KT 3SM -SHRASN OVC015
     FM221000 30010KT P6SM VCSH OVC025
     FM221600 31008KT P6SM BKN035
     FM230200 26004KT P6SM SCT035 SCT250=

USA.gov is the U.S. government's official web portal to all federal, state and local government web resources and services.